If you wish to contribute or participate in the discussions about articles you are invited to join SKYbrary as a registered user

 Actions

Odessa International Airport

From SKYbrary Wiki

UKOO
Airport
ICAO: UKOO
Summary
Name Odessa International Airport
Region Europe
Territory Ukraine UA.gif
Location Odessa
Serving
Coordinates 46° 25' 37.00" N, 30° 40' 41.00" E
Runways
Designator Length Width Surface ROPS
7/25 553 m1,814.304 ft
60 m196.85 ft
GRS /
16/34 2799 m9,183.071 ft
56 m183.727 ft
PEM yes/yes
18/36 899 m2,949.475 ft
58 m190.289 ft
BRI /


METAR
Observation UKOO 190800Z 06004MPS CAVOK 11/M01 Q1023 R34/090060 NOSIG
Station Odesa
Date/Time 19 April 2019 08:00:00
Wind direction 60°
Wind speed kts
Lowest cloud amount clouds and visibility OK
Temperature 11°C
Dew point
Humidity 43%
QNH 1023 hPa
Weather condition n/a

Odessa International Airport

ICAO: UKOO IATA: ODS

Description

International airport serving Odessa, Ukraine.

Climatology

Warm Continental Climate (Köppen climate classification Dfa).

Maps

Terrain

Loading map...

Airport Layout

Loading map...


Accidents & Serious Incidents at or in vicinity of UKOO

None on SKYbrary